sensor_id;sensor_type;location;lat;lon;timestamp;temperature;humidity
26081;DHT22;13991;51.174;4.438;2022-12-29T00:01:17;11.80;99.90
26081;DHT22;13991;51.174;4.438;2022-12-29T00:03:46;11.80;99.90
26081;DHT22;13991;51.174;4.438;2022-12-29T00:06:11;12.00;99.90
26081;DHT22;13991;51.174;4.438;2022-12-29T00:08:37;12.10;99.90
26081;DHT22;13991;51.174;4.438;2022-12-29T00:11:12;12.10;99.90
26081;DHT22;13991;51.174;4.438;2022-12-29T00:13:42;12.10;99.90
26081;DHT22;13991;51.174;4.438;2022-12-29T00:16:26;12.00;99.90
26081;DHT22;13991;51.174;4.438;2022-12-29T00:18:52;12.00;99.90
26081;DHT22;13991;51.174;4.438;2022-12-29T00:21:21;12.00;99.90
26081;DHT22;13991;51.174;4.438;2022-12-29T00:24:06;12.00;99.90
26081;DHT22;13991;51.174;4.438;2022-12-29T00:27:07;12.00;99.90
26081;DHT22;13991;51.174;4.438;2022-12-29T00:29:52;12.00;99.90
26081;DHT22;13991;51.174;4.438;2022-12-29T00:32:43;12.10;99.90
26081;DHT22;13991;51.174;4.438;2022-12-29T00:35:28;12.10;99.90
26081;DHT22;13991;51.174;4.438;2022-12-29T00:37:56;12.10;99.90
26081;DHT22;13991;51.174;4.438;2022-12-29T00:40:41;12.00;99.90
26081;DHT22;13991;51.174;4.438;2022-12-29T00:43:25;12.00;99.90
26081;DHT22;13991;51.174;4.438;2022-12-29T00:46:10;12.00;99.90
26081;DHT22;13991;51.174;4.438;2022-12-29T00:48:35;12.10;99.90
26081;DHT22;13991;51.174;4.438;2022-12-29T00:51:40;12.10;99.90
26081;DHT22;13991;51.174;4.438;2022-12-29T00:54:05;12.20;99.90
26081;DHT22;13991;51.174;4.438;2022-12-29T00:56:31;12.20;99.90
26081;DHT22;13991;51.174;4.438;2022-12-29T00:59:09;12.30;99.90
26081;DHT22;13991;51.174;4.438;2022-12-29T01:01:52;12.30;99.90
26081;DHT22;13991;51.174;4.438;2022-12-29T01:04:18;12.30;99.90
26081;DHT22;13991;51.174;4.438;2022-12-29T01:06:46;12.20;99.90
26081;DHT22;13991;51.174;4.438;2022-12-29T01:09:13;12.20;99.90
26081;DHT22;13991;51.174;4.438;2022-12-29T01:11:59;12.20;99.90
26081;DHT22;13991;51.174;4.438;2022-12-29T01:14:28;12.10;99.90
26081;DHT22;13991;51.174;4.438;2022-12-29T01:17:01;12.20;99.90
26081;DHT22;13991;51.174;4.438;2022-12-29T01:19:32;12.10;99.90
26081;DHT22;13991;51.174;4.438;2022-12-29T01:21:58;12.10;99.90
26081;DHT22;13991;51.174;4.438;2022-12-29T01:24:34;12.20;99.90
26081;DHT22;13991;51.174;4.438;2022-12-29T01:27:03;12.30;99.90
26081;DHT22;13991;51.174;4.438;2022-12-29T01:29:31;12.30;99.90
26081;DHT22;13991;51.174;4.438;2022-12-29T01:32:04;12.40;99.90
26081;DHT22;13991;51.174;4.438;2022-12-29T01:34:32;12.50;99.90
26081;DHT22;13991;51.174;4.438;2022-12-29T01:37:06;12.40;99.90
26081;DHT22;13991;51.174;4.438;2022-12-29T01:39:47;12.30;99.90
26081;DHT22;13991;51.174;4.438;2022-12-29T01:42:18;12.40;99.90
26081;DHT22;13991;51.174;4.438;2022-12-29T01:45:18;12.30;99.90
26081;DHT22;13991;51.174;4.438;2022-12-29T01:47:55;12.50;99.90
26081;DHT22;13991;51.174;4.438;2022-12-29T01:50:43;12.40;99.90
26081;DHT22;13991;51.174;4.438;2022-12-29T01:53:30;12.60;99.90
26081;DHT22;13991;51.174;4.438;2022-12-29T01:56:28;12.60;99.90
26081;DHT22;13991;51.174;4.438;2022-12-29T01:59:05;12.60;99.90
26081;DHT22;13991;51.174;4.438;2022-12-29T02:01:40;12.50;99.90
26081;DHT22;13991;51.174;4.438;2022-12-29T02:04:24;12.30;99.90
26081;DHT22;13991;51.174;4.438;2022-12-29T02:07:25;12.30;99.90
26081;DHT22;13991;51.174;4.438;2022-12-29T02:09:55;12.40;99.90
26081;DHT22;13991;51.174;4.438;2022-12-29T02:13:02;12.40;99.90
26081;DHT22;13991;51.174;4.438;2022-12-29T02:24:33;12.20;99.90
26081;DHT22;13991;51.174;4.438;2022-12-29T02:33:18;12.10;99.90
26081;DHT22;13991;51.174;4.438;2022-12-29T02:36:00;12.10;99.90
26081;DHT22;13991;51.174;4.438;2022-12-29T02:38:50;12.10;99.90
26081;DHT22;13991;51.174;4.438;2022-12-29T02:41:39;12.00;99.90
26081;DHT22;13991;51.174;4.438;2022-12-29T02:46:57;12.00;99.90
26081;DHT22;13991;51.174;4.438;2022-12-29T02:49:38;12.00;99.90
26081;DHT22;13991;51.174;4.438;2022-12-29T02:52:15;12.00;99.90
26081;DHT22;13991;51.174;4.438;2022-12-29T02:54:42;12.00;99.90
26081;DHT22;13991;51.174;4.438;2022-12-29T02:59:40;11.90;99.90
26081;DHT22;13991;51.174;4.438;2022-12-29T03:05:32;12.10;99.90
26081;DHT22;13991;51.174;4.438;2022-12-29T03:08:10;12.20;99.90
26081;DHT22;13991;51.174;4.438;2022-12-29T03:10:59;12.10;99.90
26081;DHT22;13991;51.174;4.438;2022-12-29T03:16:35;11.90;99.90
26081;DHT22;13991;51.174;4.438;2022-12-29T03:19:46;11.90;99.90
26081;DHT22;13991;51.174;4.438;2022-12-29T03:22:07;11.80;99.90
26081;DHT22;13991;51.174;4.438;2022-12-29T03:27:39;11.80;99.90
26081;DHT22;13991;51.174;4.438;2022-12-29T03:30:07;11.90;99.90
26081;DHT22;13991;51.174;4.438;2022-12-29T03:32:55;12.00;99.90
26081;DHT22;13991;51.174;4.438;2022-12-29T03:35:25;12.00;99.90
26081;DHT22;13991;51.174;4.438;2022-12-29T03:38:15;11.90;99.90
26081;DHT22;13991;51.174;4.438;2022-12-29T03:41:04;11.80;99.90
26081;DHT22;13991;51.174;4.438;2022-12-29T03:43:31;11.70;99.90
26081;DHT22;13991;51.174;4.438;2022-12-29T03:45:57;11.70;99.90
26081;DHT22;13991;51.174;4.438;2022-12-29T03:48:23;11.70;99.90
26081;DHT22;13991;51.174;4.438;2022-12-29T03:50:49;11.80;99.90
26081;DHT22;13991;51.174;4.438;2022-12-29T03:53:18;11.80;99.90
26081;DHT22;13991;51.174;4.438;2022-12-29T03:55:44;11.80;99.90
26081;DHT22;13991;51.174;4.438;2022-12-29T03:58:10;11.80;99.90
26081;DHT22;13991;51.174;4.438;2022-12-29T04:00:35;11.80;99.90
26081;DHT22;13991;51.174;4.438;2022-12-29T04:03:08;11.70;99.90
26081;DHT22;13991;51.174;4.438;2022-12-29T04:05:33;11.70;99.90
26081;DHT22;13991;51.174;4.438;2022-12-29T04:08:17;11.60;99.90
26081;DHT22;13991;51.174;4.438;2022-12-29T04:10:43;11.70;99.90
26081;DHT22;13991;51.174;4.438;2022-12-29T04:13:08;11.60;99.90
26081;DHT22;13991;51.174;4.438;2022-12-29T04:15:34;11.60;99.90
26081;DHT22;13991;51.174;4.438;2022-12-29T04:18:00;11.60;99.90
26081;DHT22;13991;51.174;4.438;2022-12-29T04:20:27;11.50;99.90
26081;DHT22;13991;51.174;4.438;2022-12-29T04:23:11;11.50;99.90
26081;DHT22;13991;51.174;4.438;2022-12-29T04:25:36;11.50;99.90
26081;DHT22;13991;51.174;4.438;2022-12-29T04:28:02;11.50;99.90
26081;DHT22;13991;51.174;4.438;2022-12-29T04:30:28;11.40;99.90
26081;DHT22;13991;51.174;4.438;2022-12-29T04:32:54;11.50;99.90
26081;DHT22;13991;51.174;4.438;2022-12-29T04:35:19;11.50;99.90
26081;DHT22;13991;51.174;4.438;2022-12-29T04:37:45;11.60;99.90
26081;DHT22;13991;51.174;4.438;2022-12-29T04:40:11;11.60;99.90
26081;DHT22;13991;51.174;4.438;2022-12-29T04:42:37;11.60;99.90
26081;DHT22;13991;51.174;4.438;2022-12-29T04:45:03;11.60;99.90
26081;DHT22;13991;51.174;4.438;2022-12-29T04:47:29;11.60;99.90
26081;DHT22;13991;51.174;4.438;2022-12-29T04:49:54;11.70;99.90
26081;DHT22;13991;51.174;4.438;2022-12-29T04:52:20;11.70;99.90
26081;DHT22;13991;51.174;4.438;2022-12-29T04:54:46;11.80;99.90
26081;DHT22;13991;51.174;4.438;2022-12-29T04:57:12;11.80;99.90
26081;DHT22;13991;51.174;4.438;2022-12-29T04:59:37;11.80;99.90
26081;DHT22;13991;51.174;4.438;2022-12-29T05:02:04;11.80;99.90
26081;DHT22;13991;51.174;4.438;2022-12-29T05:04:30;11.80;99.90
26081;DHT22;13991;51.174;4.438;2022-12-29T05:06:56;11.80;99.90
26081;DHT22;13991;51.174;4.438;2022-12-29T05:09:21;11.80;99.90
26081;DHT22;13991;51.174;4.438;2022-12-29T05:11:49;11.80;99.90
26081;DHT22;13991;51.174;4.438;2022-12-29T05:14:15;11.80;99.90
26081;DHT22;13991;51.174;4.438;2022-12-29T05:16:40;11.70;99.90
26081;DHT22;13991;51.174;4.438;2022-12-29T05:19:06;11.80;99.90
26081;DHT22;13991;51.174;4.438;2022-12-29T05:21:33;11.80;99.90
26081;DHT22;13991;51.174;4.438;2022-12-29T05:23:59;11.70;99.90
26081;DHT22;13991;51.174;4.438;2022-12-29T05:26:26;11.70;99.90
26081;DHT22;13991;51.174;4.438;2022-12-29T05:28:53;11.70;99.90
26081;DHT22;13991;51.174;4.438;2022-12-29T05:31:18;11.70;99.90
26081;DHT22;13991;51.174;4.438;2022-12-29T05:33:48;11.60;99.90
26081;DHT22;13991;51.174;4.438;2022-12-29T05:36:35;11.70;99.90
26081;DHT22;13991;51.174;4.438;2022-12-29T05:39:22;11.70;99.90
26081;DHT22;13991;51.174;4.438;2022-12-29T05:42:02;11.50;99.90
26081;DHT22;13991;51.174;4.438;2022-12-29T05:44:40;11.40;99.90
26081;DHT22;13991;51.174;4.438;2022-12-29T05:47:14;11.70;99.90
26081;DHT22;13991;51.174;4.438;2022-12-29T05:50:00;11.70;99.90
26081;DHT22;13991;51.174;4.438;2022-12-29T05:52:34;11.70;99.90
26081;DHT22;13991;51.174;4.438;2022-12-29T05:55:13;11.70;99.90
26081;DHT22;13991;51.174;4.438;2022-12-29T05:57:43;11.60;99.90
26081;DHT22;13991;51.174;4.438;2022-12-29T06:00:15;11.70;99.90
26081;DHT22;13991;51.174;4.438;2022-12-29T06:02:43;11.70;99.90
26081;DHT22;13991;51.174;4.438;2022-12-29T06:05:09;11.60;99.90
26081;DHT22;13991;51.174;4.438;2022-12-29T06:07:36;11.50;99.90
26081;DHT22;13991;51.174;4.438;2022-12-29T06:10:05;11.60;99.90
26081;DHT22;13991;51.174;4.438;2022-12-29T06:12:44;11.70;99.90
26081;DHT22;13991;51.174;4.438;2022-12-29T06:15:23;11.80;99.90
26081;DHT22;13991;51.174;4.438;2022-12-29T06:18:04;11.80;99.90
26081;DHT22;13991;51.174;4.438;2022-12-29T06:20:32;11.80;99.90
26081;DHT22;13991;51.174;4.438;2022-12-29T06:23:06;11.80;99.90
26081;DHT22;13991;51.174;4.438;2022-12-29T06:25:43;11.80;99.90
26081;DHT22;13991;51.174;4.438;2022-12-29T06:28:14;11.60;99.90
26081;DHT22;13991;51.174;4.438;2022-12-29T06:30:58;11.60;99.90
26081;DHT22;13991;51.174;4.438;2022-12-29T06:33:32;11.60;99.90
26081;DHT22;13991;51.174;4.438;2022-12-29T06:36:09;11.70;99.90
26081;DHT22;13991;51.174;4.438;2022-12-29T06:38:44;11.70;99.90
26081;DHT22;13991;51.174;4.438;2022-12-29T06:44:22;11.70;99.90
26081;DHT22;13991;51.174;4.438;2022-12-29T06:46:53;11.70;99.90
26081;DHT22;13991;51.174;4.438;2022-12-29T06:49:52;11.60;99.90
26081;DHT22;13991;51.174;4.438;2022-12-29T06:55:13;11.70;99.90
26081;DHT22;13991;51.174;4.438;2022-12-29T06:58:02;11.80;99.90
26081;DHT22;13991;51.174;4.438;2022-12-29T07:00:36;11.80;99.90
26081;DHT22;13991;51.174;4.438;2022-12-29T07:03:09;11.80;99.90
26081;DHT22;13991;51.174;4.438;2022-12-29T07:05:55;11.80;99.90
26081;DHT22;13991;51.174;4.438;2022-12-29T07:08:29;12.00;99.90
26081;DHT22;13991;51.174;4.438;2022-12-29T07:11:05;11.90;99.90
26081;DHT22;13991;51.174;4.438;2022-12-29T07:13:34;11.90;99.90
26081;DHT22;13991;51.174;4.438;2022-12-29T07:16:04;11.90;99.90
26081;DHT22;13991;51.174;4.438;2022-12-29T07:19:01;11.80;99.90
26081;DHT22;13991;51.174;4.438;2022-12-29T07:21:32;11.90;99.90
26081;DHT22;13991;51.174;4.438;2022-12-29T07:24:02;11.70;99.90
26081;DHT22;13991;51.174;4.438;2022-12-29T07:26:31;11.70;99.90
26081;DHT22;13991;51.174;4.438;2022-12-29T07:29:00;11.70;99.90
26081;DHT22;13991;51.174;4.438;2022-12-29T07:31:35;11.70;99.90
26081;DHT22;13991;51.174;4.438;2022-12-29T07:34:09;11.60;99.90
26081;DHT22;13991;51.174;4.438;2022-12-29T07:36:53;11.50;99.90
26081;DHT22;13991;51.174;4.438;2022-12-29T07:39:21;11.70;99.90
26081;DHT22;13991;51.174;4.438;2022-12-29T07:42:08;11.80;99.90
26081;DHT22;13991;51.174;4.438;2022-12-29T07:44:53;11.80;99.90
26081;DHT22;13991;51.174;4.438;2022-12-29T07:47:39;11.80;99.90
26081;DHT22;13991;51.174;4.438;2022-12-29T07:50:20;11.90;99.90
26081;DHT22;13991;51.174;4.438;2022-12-29T07:52:47;11.80;99.90
26081;DHT22;13991;51.174;4.438;2022-12-29T07:55:34;11.90;99.90
26081;DHT22;13991;51.174;4.438;2022-12-29T07:58:12;12.00;99.90
26081;DHT22;13991;51.174;4.438;2022-12-29T08:01:00;11.90;99.90
26081;DHT22;13991;51.174;4.438;2022-12-29T08:03:38;11.80;99.90
26081;DHT22;13991;51.174;4.438;2022-12-29T08:06:31;11.80;99.90
26081;DHT22;13991;51.174;4.438;2022-12-29T08:09:03;11.80;99.90
26081;DHT22;13991;51.174;4.438;2022-12-29T08:11:29;12.00;99.90
26081;DHT22;13991;51.174;4.438;2022-12-29T08:13:58;11.90;99.90
26081;DHT22;13991;51.174;4.438;2022-12-29T08:16:26;11.90;99.90
26081;DHT22;13991;51.174;4.438;2022-12-29T08:18:59;12.00;99.90
26081;DHT22;13991;51.174;4.438;2022-12-29T08:21:33;11.80;99.90
26081;DHT22;13991;51.174;4.438;2022-12-29T08:24:19;11.80;99.90
26081;DHT22;13991;51.174;4.438;2022-12-29T08:26:50;11.70;99.90
26081;DHT22;13991;51.174;4.438;2022-12-29T08:32:09;11.70;99.90
26081;DHT22;13991;51.174;4.438;2022-12-29T08:35:20;11.70;99.90
26081;DHT22;13991;51.174;4.438;2022-12-29T08:45:12;12.00;99.90
26081;DHT22;13991;51.174;4.438;2022-12-29T08:54:23;11.80;99.90
26081;DHT22;13991;51.174;4.438;2022-12-29T08:56:57;11.60;99.90
26081;DHT22;13991;51.174;4.438;2022-12-29T08:59:50;11.70;99.90
26081;DHT22;13991;51.174;4.438;2022-12-29T09:02:26;11.80;99.90
26081;DHT22;13991;51.174;4.438;2022-12-29T09:05:26;11.70;99.90
26081;DHT22;13991;51.174;4.438;2022-12-29T09:08:32;11.80;99.90
26081;DHT22;13991;51.174;4.438;2022-12-29T09:11:40;11.70;99.90
26081;DHT22;13991;51.174;4.438;2022-12-29T09:14:16;11.80;99.90
26081;DHT22;13991;51.174;4.438;2022-12-29T09:16:47;11.70;99.90
26081;DHT22;13991;51.174;4.438;2022-12-29T09:35:34;11.60;99.90
26081;DHT22;13991;51.174;4.438;2022-12-29T09:38:00;11.60;99.90
26081;DHT22;13991;51.174;4.438;2022-12-29T09:40:31;11.50;99.90
26081;DHT22;13991;51.174;4.438;2022-12-29T09:51:56;11.70;99.90
26081;DHT22;13991;51.174;4.438;2022-12-29T09:57:56;11.60;99.90
26081;DHT22;13991;51.174;4.438;2022-12-29T10:01:23;11.50;99.90
26081;DHT22;13991;51.174;4.438;2022-12-29T10:03:56;11.50;99.90
26081;DHT22;13991;51.174;4.438;2022-12-29T10:15:55;11.30;99.90
26081;DHT22;13991;51.174;4.438;2022-12-29T10:24:09;11.60;99.90
26081;DHT22;13991;51.174;4.438;2022-12-29T10:26:42;11.60;99.90
26081;DHT22;13991;51.174;4.438;2022-12-29T10:29:37;11.60;99.90
26081;DHT22;13991;51.174;4.438;2022-12-29T10:35:26;11.40;99.90
26081;DHT22;13991;51.174;4.438;2022-12-29T10:43:54;11.70;99.90
26081;DHT22;13991;51.174;4.438;2022-12-29T10:46:36;11.80;99.90
26081;DHT22;13991;51.174;4.438;2022-12-29T10:49:52;11.80;99.90
26081;DHT22;13991;51.174;4.438;2022-12-29T10:52:29;11.80;99.90
26081;DHT22;13991;51.174;4.438;2022-12-29T10:55:03;11.80;99.90
26081;DHT22;13991;51.174;4.438;2022-12-29T10:57:51;11.90;99.90
26081;DHT22;13991;51.174;4.438;2022-12-29T11:00:24;11.80;99.90
26081;DHT22;13991;51.174;4.438;2022-12-29T11:09:32;12.00;99.90
26081;DHT22;13991;51.174;4.438;2022-12-29T11:12:39;12.10;99.90
26081;DHT22;13991;51.174;4.438;2022-12-29T11:15:46;12.10;99.90
26081;DHT22;13991;51.174;4.438;2022-12-29T11:18:43;12.10;99.90
26081;DHT22;13991;51.174;4.438;2022-12-29T11:21:43;12.10;99.90
26081;DHT22;13991;51.174;4.438;2022-12-29T11:24:34;12.10;99.90
26081;DHT22;13991;51.174;4.438;2022-12-29T11:27:31;12.20;99.90
26081;DHT22;13991;51.174;4.438;2022-12-29T11:30:49;12.20;99.90
26081;DHT22;13991;51.174;4.438;2022-12-29T11:37:13;12.10;99.90
26081;DHT22;13991;51.174;4.438;2022-12-29T11:39:50;12.00;99.90
26081;DHT22;13991;51.174;4.438;2022-12-29T11:43:16;12.20;99.90
26081;DHT22;13991;51.174;4.438;2022-12-29T11:48:53;12.30;99.90
26081;DHT22;13991;51.174;4.438;2022-12-29T11:51:45;12.20;99.90
26081;DHT22;13991;51.174;4.438;2022-12-29T11:54:33;12.20;99.90
26081;DHT22;13991;51.174;4.438;2022-12-29T11:57:22;12.30;99.90
26081;DHT22;13991;51.174;4.438;2022-12-29T12:00:14;12.30;99.90
26081;DHT22;13991;51.174;4.438;2022-12-29T12:03:15;12.40;99.90
26081;DHT22;13991;51.174;4.438;2022-12-29T12:07:05;12.50;99.90
26081;DHT22;13991;51.174;4.438;2022-12-29T12:10:33;12.50;99.90
26081;DHT22;13991;51.174;4.438;2022-12-29T12:30:14;12.30;99.90
26081;DHT22;13991;51.174;4.438;2022-12-29T12:39:11;12.00;99.90
26081;DHT22;13991;51.174;4.438;2022-12-29T12:42:06;11.80;99.90
26081;DHT22;13991;51.174;4.438;2022-12-29T12:44:51;11.60;99.90
26081;DHT22;13991;51.174;4.438;2022-12-29T12:47:46;11.50;99.90
26081;DHT22;13991;51.174;4.438;2022-12-29T13:10:42;11.40;99.90
26081;DHT22;13991;51.174;4.438;2022-12-29T13:18:40;11.70;99.90
26081;DHT22;13991;51.174;4.438;2022-12-29T13:27:34;11.90;99.90
26081;DHT22;13991;51.174;4.438;2022-12-29T13:29:59;11.90;99.90
26081;DHT22;13991;51.174;4.438;2022-12-29T13:32:34;11.80;99.90
26081;DHT22;13991;51.174;4.438;2022-12-29T13:35:22;11.80;99.90
26081;DHT22;13991;51.174;4.438;2022-12-29T13:38:34;11.80;99.90
26081;DHT22;13991;51.174;4.438;2022-12-29T13:41:14;11.80;99.90
26081;DHT22;13991;51.174;4.438;2022-12-29T13:44:03;11.80;99.90
26081;DHT22;13991;51.174;4.438;2022-12-29T13:46:36;11.80;99.90
26081;DHT22;13991;51.174;4.438;2022-12-29T13:49:17;11.70;99.90
26081;DHT22;13991;51.174;4.438;2022-12-29T13:51:58;11.70;99.90
26081;DHT22;13991;51.174;4.438;2022-12-29T14:06:28;11.40;99.90
26081;DHT22;13991;51.174;4.438;2022-12-29T14:09:00;11.40;99.90
26081;DHT22;13991;51.174;4.438;2022-12-29T14:11:35;11.50;99.90
26081;DHT22;13991;51.174;4.438;2022-12-29T14:14:23;11.40;99.90
26081;DHT22;13991;51.174;4.438;2022-12-29T14:16:51;11.40;99.90
26081;DHT22;13991;51.174;4.438;2022-12-29T14:19:32;11.30;99.90
26081;DHT22;13991;51.174;4.438;2022-12-29T14:22:02;11.30;99.90
26081;DHT22;13991;51.174;4.438;2022-12-29T14:34:56;11.20;99.90
26081;DHT22;13991;51.174;4.438;2022-12-29T14:37:25;10.90;99.90
26081;DHT22;13991;51.174;4.438;2022-12-29T14:40:19;10.80;99.90
26081;DHT22;13991;51.174;4.438;2022-12-29T14:42:49;10.90;99.90
26081;DHT22;13991;51.174;4.438;2022-12-29T14:45:35;10.90;99.90
26081;DHT22;13991;51.174;4.438;2022-12-29T14:50:49;10.90;99.90
26081;DHT22;13991;51.174;4.438;2022-12-29T14:53:45;10.90;99.90
26081;DHT22;13991;51.174;4.438;2022-12-29T14:56:14;11.00;99.90
26081;DHT22;13991;51.174;4.438;2022-12-29T14:58:44;10.90;99.90
26081;DHT22;13991;51.174;4.438;2022-12-29T15:04:21;10.90;99.90
26081;DHT22;13991;51.174;4.438;2022-12-29T15:06:49;10.90;99.90
26081;DHT22;13991;51.174;4.438;2022-12-29T15:09:28;10.90;99.90
26081;DHT22;13991;51.174;4.438;2022-12-29T15:14:48;10.80;99.90
26081;DHT22;13991;51.174;4.438;2022-12-29T15:17:26;10.70;99.90
26081;DHT22;13991;51.174;4.438;2022-12-29T15:19:53;10.80;99.90
26081;DHT22;13991;51.174;4.438;2022-12-29T15:22:20;10.70;99.90
26081;DHT22;13991;51.174;4.438;2022-12-29T15:24:46;10.60;99.90
26081;DHT22;13991;51.174;4.438;2022-12-29T15:27:20;10.50;99.90
26081;DHT22;13991;51.174;4.438;2022-12-29T15:29:47;10.60;99.90
26081;DHT22;13991;51.174;4.438;2022-12-29T15:32:19;10.50;99.90
26081;DHT22;13991;51.174;4.438;2022-12-29T15:34:48;10.40;99.90
26081;DHT22;13991;51.174;4.438;2022-12-29T15:37:28;10.50;99.90
26081;DHT22;13991;51.174;4.438;2022-12-29T15:40:25;10.50;99.90
26081;DHT22;13991;51.174;4.438;2022-12-29T15:45:42;10.40;99.90
26081;DHT22;13991;51.174;4.438;2022-12-29T15:48:18;10.30;99.90
26081;DHT22;13991;51.174;4.438;2022-12-29T15:50:45;10.30;99.90
26081;DHT22;13991;51.174;4.438;2022-12-29T15:56:15;10.30;99.90
26081;DHT22;13991;51.174;4.438;2022-12-29T15:58:46;10.30;99.90
26081;DHT22;13991;51.174;4.438;2022-12-29T16:01:33;10.50;99.90
26081;DHT22;13991;51.174;4.438;2022-12-29T16:04:04;10.40;99.90
26081;DHT22;13991;51.174;4.438;2022-12-29T16:06:36;10.40;99.90
26081;DHT22;13991;51.174;4.438;2022-12-29T16:09:43;10.40;99.90
26081;DHT22;13991;51.174;4.438;2022-12-29T16:12:21;10.50;99.90
26081;DHT22;13991;51.174;4.438;2022-12-29T16:14:54;10.50;99.90
26081;DHT22;13991;51.174;4.438;2022-12-29T16:17:26;10.40;99.90
26081;DHT22;13991;51.174;4.438;2022-12-29T16:23:26;10.20;99.90
26081;DHT22;13991;51.174;4.438;2022-12-29T16:25:56;10.20;99.90
26081;DHT22;13991;51.174;4.438;2022-12-29T16:28:35;10.10;99.90
26081;DHT22;13991;51.174;4.438;2022-12-29T16:31:04;10.10;99.90
26081;DHT22;13991;51.174;4.438;2022-12-29T16:33:39;10.20;99.90
26081;DHT22;13991;51.174;4.438;2022-12-29T16:36:29;10.10;99.90
26081;DHT22;13991;51.174;4.438;2022-12-29T16:39:36;10.20;99.90
26081;DHT22;13991;51.174;4.438;2022-12-29T16:42:43;10.20;99.90
26081;DHT22;13991;51.174;4.438;2022-12-29T16:51:15;9.70;99.90
26081;DHT22;13991;51.174;4.438;2022-12-29T16:54:13;9.80;99.90
26081;DHT22;13991;51.174;4.438;2022-12-29T16:56:52;9.80;99.90
26081;DHT22;13991;51.174;4.438;2022-12-29T17:02:19;9.60;99.90
26081;DHT22;13991;51.174;4.438;2022-12-29T17:04:55;9.60;99.90
26081;DHT22;13991;51.174;4.438;2022-12-29T17:07:50;9.70;99.90
26081;DHT22;13991;51.174;4.438;2022-12-29T17:10:23;9.60;99.90
26081;DHT22;13991;51.174;4.438;2022-12-29T17:13:09;9.50;99.90
26081;DHT22;13991;51.174;4.438;2022-12-29T17:15:40;9.70;99.90
26081;DHT22;13991;51.174;4.438;2022-12-29T17:18:07;9.60;99.90
26081;DHT22;13991;51.174;4.438;2022-12-29T17:20:45;9.60;99.90
26081;DHT22;13991;51.174;4.438;2022-12-29T17:23:23;9.60;99.90
26081;DHT22;13991;51.174;4.438;2022-12-29T17:25:59;9.60;99.90
26081;DHT22;13991;51.174;4.438;2022-12-29T17:28:28;9.50;99.90
26081;DHT22;13991;51.174;4.438;2022-12-29T17:31:00;9.60;99.90
26081;DHT22;13991;51.174;4.438;2022-12-29T17:33:35;9.50;99.90
26081;DHT22;13991;51.174;4.438;2022-12-29T17:36:07;9.50;99.90
26081;DHT22;13991;51.174;4.438;2022-12-29T17:38:38;9.60;99.90
26081;DHT22;13991;51.174;4.438;2022-12-29T17:41:13;9.50;99.90
26081;DHT22;13991;51.174;4.438;2022-12-29T17:43:44;9.50;99.90
26081;DHT22;13991;51.174;4.438;2022-12-29T17:46:20;9.50;99.90
26081;DHT22;13991;51.174;4.438;2022-12-29T17:48:47;9.40;99.90
26081;DHT22;13991;51.174;4.438;2022-12-29T17:51:15;9.50;99.90
26081;DHT22;13991;51.174;4.438;2022-12-29T17:54:05;9.40;99.90
26081;DHT22;13991;51.174;4.438;2022-12-29T17:56:31;9.40;99.90
26081;DHT22;13991;51.174;4.438;2022-12-29T17:59:07;9.50;99.90
26081;DHT22;13991;51.174;4.438;2022-12-29T18:02:14;9.40;99.90
26081;DHT22;13991;51.174;4.438;2022-12-29T18:05:02;9.30;99.90
26081;DHT22;13991;51.174;4.438;2022-12-29T18:07:44;9.40;99.90
26081;DHT22;13991;51.174;4.438;2022-12-29T18:10:17;9.30;99.90
26081;DHT22;13991;51.174;4.438;2022-12-29T18:12:50;9.30;99.90
26081;DHT22;13991;51.174;4.438;2022-12-29T18:15:39;9.40;99.90
26081;DHT22;13991;51.174;4.438;2022-12-29T18:18:15;9.50;99.90
26081;DHT22;13991;51.174;4.438;2022-12-29T18:21:16;9.40;99.90
26081;DHT22;13991;51.174;4.438;2022-12-29T18:23:43;9.40;99.90
26081;DHT22;13991;51.174;4.438;2022-12-29T18:26:23;9.40;99.90
26081;DHT22;13991;51.174;4.438;2022-12-29T18:28:50;9.40;99.90
26081;DHT22;13991;51.174;4.438;2022-12-29T18:31:33;9.50;99.90
26081;DHT22;13991;51.174;4.438;2022-12-29T18:34:12;9.60;99.90
26081;DHT22;13991;51.174;4.438;2022-12-29T18:36:38;9.60;99.90
26081;DHT22;13991;51.174;4.438;2022-12-29T18:39:04;9.50;99.90
26081;DHT22;13991;51.174;4.438;2022-12-29T18:41:31;9.60;99.90
26081;DHT22;13991;51.174;4.438;2022-12-29T18:44:16;9.60;99.90
26081;DHT22;13991;51.174;4.438;2022-12-29T18:46:47;9.70;99.90
26081;DHT22;13991;51.174;4.438;2022-12-29T18:49:13;9.60;99.90
26081;DHT22;13991;51.174;4.438;2022-12-29T18:51:38;9.50;99.90
26081;DHT22;13991;51.174;4.438;2022-12-29T18:54:05;9.50;99.90
26081;DHT22;13991;51.174;4.438;2022-12-29T18:56:33;9.50;99.90
26081;DHT22;13991;51.174;4.438;2022-12-29T18:58:59;9.60;99.90
26081;DHT22;13991;51.174;4.438;2022-12-29T19:01:26;9.50;99.90
26081;DHT22;13991;51.174;4.438;2022-12-29T19:03:53;9.50;99.90
26081;DHT22;13991;51.174;4.438;2022-12-29T19:06:19;9.50;99.90
26081;DHT22;13991;51.174;4.438;2022-12-29T19:08:45;9.60;99.90
26081;DHT22;13991;51.174;4.438;2022-12-29T19:11:11;9.50;99.90
26081;DHT22;13991;51.174;4.438;2022-12-29T19:13:37;9.50;99.90
26081;DHT22;13991;51.174;4.438;2022-12-29T19:16:02;9.50;99.90
26081;DHT22;13991;51.174;4.438;2022-12-29T19:18:28;9.40;99.90
26081;DHT22;13991;51.174;4.438;2022-12-29T19:20:55;9.40;99.90
26081;DHT22;13991;51.174;4.438;2022-12-29T19:23:25;9.50;99.90
26081;DHT22;13991;51.174;4.438;2022-12-29T19:25:53;9.40;99.90
26081;DHT22;13991;51.174;4.438;2022-12-29T19:28:25;9.40;99.90
26081;DHT22;13991;51.174;4.438;2022-12-29T19:30:52;9.30;99.90
26081;DHT22;13991;51.174;4.438;2022-12-29T19:33:19;9.30;99.90
26081;DHT22;13991;51.174;4.438;2022-12-29T19:35:45;9.20;99.90
26081;DHT22;13991;51.174;4.438;2022-12-29T19:38:12;9.20;99.90
26081;DHT22;13991;51.174;4.438;2022-12-29T19:40:41;9.20;99.90
26081;DHT22;13991;51.174;4.438;2022-12-29T19:43:11;9.20;99.90
26081;DHT22;13991;51.174;4.438;2022-12-29T19:45:38;9.20;99.90
26081;DHT22;13991;51.174;4.438;2022-12-29T19:48:05;9.20;99.90
26081;DHT22;13991;51.174;4.438;2022-12-29T19:50:31;9.20;99.90
26081;DHT22;13991;51.174;4.438;2022-12-29T19:52:57;9.30;99.90
26081;DHT22;13991;51.174;4.438;2022-12-29T19:55:23;9.20;99.90
26081;DHT22;13991;51.174;4.438;2022-12-29T19:57:48;9.20;99.90
26081;DHT22;13991;51.174;4.438;2022-12-29T20:00:15;9.20;99.90
26081;DHT22;13991;51.174;4.438;2022-12-29T20:02:41;9.20;99.90
26081;DHT22;13991;51.174;4.438;2022-12-29T20:05:08;9.30;99.90
26081;DHT22;13991;51.174;4.438;2022-12-29T20:07:34;9.20;99.90
26081;DHT22;13991;51.174;4.438;2022-12-29T20:10:00;9.10;99.90
26081;DHT22;13991;51.174;4.438;2022-12-29T20:12:26;9.00;99.90
26081;DHT22;13991;51.174;4.438;2022-12-29T20:14:52;9.00;99.90
26081;DHT22;13991;51.174;4.438;2022-12-29T20:17:18;9.00;99.90